Time;durP1;ratioP1;P1;durP2;ratioP2;P2;SDS_P1;SDS_P2;PMS_P1;PMS_P2;Temp;Humidity;BMP_temperature;BMP_pressure;BME280_temperature;BME280_humidity;BME280_pressure;Samples;Min_cycle;Max_cycle;Signal;HPM_P1;HPM_P2
2023/11/30 00:00:27;;;;;;;12.07;10.68;;;;;;;2.57;100.00;100149.75;5264127;28;20033;-79
2023/11/30 00:02:59;;;;;;;13.50;12.10;;;;;;;2.71;100.00;100166.19;5262792;28;20089;-79
2023/11/30 00:05:31;;;;;;;13.50;12.05;;;;;;;2.64;100.00;100150.22;5261191;28;20036;-79
2023/11/30 00:08:03;;;;;;;14.02;11.48;;;;;;;2.79;100.00;100172.53;5260474;28;20039;-78
2023/11/30 00:10:35;;;;;;;13.88;11.80;;;;;;;2.80;100.00;100161.25;5262523;28;20035;-79
2023/11/30 00:13:07;;;;;;;14.30;12.27;;;;;;;2.82;100.00;100163.75;5263149;28;20398;-79
2023/11/30 00:15:39;;;;;;;13.13;11.73;;;;;;;2.80;100.00;100161.25;5263302;28;20046;-80
2023/11/30 00:18:11;;;;;;;14.10;11.63;;;;;;;2.83;100.00;100161.06;5264899;28;20039;-79
2023/11/30 00:20:43;;;;;;;13.10;11.70;;;;;;;2.85;100.00;100158.38;5260743;28;20041;-79
2023/11/30 00:23:15;;;;;;;14.48;11.95;;;;;;;2.86;100.00;100157.47;5262541;28;20969;-79
2023/11/30 00:25:47;;;;;;;13.95;11.77;;;;;;;2.81;100.00;100146.59;5263407;28;20039;-79
2023/11/30 00:28:19;;;;;;;13.70;11.75;;;;;;;2.81;100.00;100149.16;5260464;28;20032;-78
2023/11/30 00:30:51;;;;;;;14.85;12.07;;;;;;;2.83;100.00;100144.72;5261557;28;20032;-79
2023/11/30 00:33:22;;;;;;;13.63;11.85;;;;;;;2.83;100.00;100144.72;5243638;28;20036;-79
2023/11/30 00:35:54;;;;;;;13.20;11.45;;;;;;;2.85;100.00;100143.69;5261794;28;20045;-79
2023/11/30 00:38:26;;;;;;;14.43;12.20;;;;;;;2.91;100.00;100142.47;5265264;28;20032;-79
2023/11/30 00:54:51;;;;;;;15.55;11.63;;;;;;;2.93;100.00;100122.50;5263840;28;20036;-79
2023/11/30 00:57:23;;;;;;;15.23;13.30;;;;;;;2.88;100.00;100117.63;5245712;28;20047;-79
2023/11/30 00:59:55;;;;;;;16.65;13.25;;;;;;;2.85;100.00;100117.00;5261133;28;20033;-79
2023/11/30 01:02:27;;;;;;;13.52;11.95;;;;;;;2.88;100.00;100114.22;5265444;28;20045;-79
2023/11/30 01:04:59;;;;;;;14.40;12.30;;;;;;;2.84;100.00;100111.00;5256462;28;20055;-79
2023/11/30 01:07:32;;;;;;;14.70;12.60;;;;;;;2.79;100.00;100102.69;5257283;28;20033;-79
2023/11/30 01:10:04;;;;;;;14.13;12.23;;;;;;;2.89;100.00;100108.13;5266096;28;20031;-79
2023/11/30 01:12:36;;;;;;;15.65;12.38;;;;;;;2.89;100.00;100108.94;5268700;28;20283;-78
2023/11/30 01:15:09;;;;;;;17.33;13.07;;;;;;;2.86;100.00;100109.13;5259265;28;20131;-79
2023/11/30 01:17:41;;;;;;;14.48;12.98;;;;;;;2.84;100.00;100105.81;5261911;28;20016;-79
2023/11/30 01:20:12;;;;;;;14.68;12.27;;;;;;;2.85;100.00;100099.72;5260241;28;20032;-79
2023/11/30 01:22:44;;;;;;;13.50;12.00;;;;;;;2.90;100.00;100114.94;5264772;28;20371;-80
2023/11/30 01:25:17;;;;;;;13.90;12.40;;;;;;;2.89;100.00;100110.69;5265554;28;20063;-79
2023/11/30 01:27:50;;;;;;;13.18;11.63;;;;;;;2.83;100.00;100093.81;5262295;28;20033;-80
2023/11/30 01:30:22;;;;;;;13.68;12.25;;;;;;;2.83;100.00;100088.63;5262740;28;20029;-80
2023/11/30 01:32:54;;;;;;;24.60;13.57;;;;;;;2.88;100.00;100106.47;5243903;28;20041;-79
2023/11/30 01:35:28;;;;;;;13.13;11.45;;;;;;;2.88;100.00;100104.69;5261524;28;20033;-80
2023/11/30 01:38:00;;;;;;;15.43;12.35;;;;;;;2.80;100.00;100088.81;5263597;28;20021;-80
2023/11/30 01:40:32;;;;;;;15.35;12.82;;;;;;;2.90;100.00;100102.00;5258785;28;20182;-79
2023/11/30 01:43:07;;;;;;;14.35;12.85;;;;;;;2.97;100.00;100108.44;5264123;28;20029;-80
2023/11/30 01:45:39;;;;;;;14.90;12.48;;;;;;;2.86;100.00;100097.97;5262711;28;20040;-79
2023/11/30 01:48:12;;;;;;;14.02;11.43;;;;;;;2.88;100.00;100104.69;5265306;28;20026;-79
2023/11/30 01:50:45;;;;;;;15.15;12.25;;;;;;;2.85;100.00;100104.06;5263111;28;20036;-79
2023/11/30 01:53:17;;;;;;;13.98;11.30;;;;;;;2.85;100.00;100102.31;5269526;28;20408;-80
2023/11/30 01:55:49;;;;;;;15.27;12.05;;;;;;;2.84;100.00;100097.22;5261014;28;20037;-79
2023/11/30 01:58:20;;;;;;;13.65;11.55;;;;;;;2.81;100.00;100097.44;5267596;28;20039;-79
2023/11/30 02:00:53;;;;;;;15.95;12.60;;;;;;;2.84;100.00;100097.22;5263555;28;20447;-79
2023/11/30 02:03:26;;;;;;;13.35;11.90;;;;;;;2.85;100.00;100091.13;5268097;28;20045;-79
2023/11/30 02:05:58;;;;;;;14.10;11.85;;;;;;;2.86;100.00;100103.13;5262498;28;20045;-79
2023/11/30 02:08:30;;;;;;;13.13;11.75;;;;;;;2.80;100.00;100088.81;5263375;28;20032;-79
2023/11/30 02:11:02;;;;;;;13.35;11.95;;;;;;;2.79;100.00;100086.34;5267489;28;20031;-79
2023/11/30 02:13:34;;;;;;;13.88;11.98;;;;;;;2.81;100.00;100082.75;5262845;28;20027;-79
2023/11/30 02:16:07;;;;;;;14.45;12.60;;;;;;;2.83;100.00;100087.81;5268603;28;20033;-79
2023/11/30 02:18:39;;;;;;;13.85;11.75;;;;;;;2.82;100.00;100086.16;5264618;28;20036;-79
2023/11/30 02:21:10;;;;;;;13.65;11.65;;;;;;;2.77;100.00;100081.28;5266355;28;20035;-79
2023/11/30 02:23:42;;;;;;;16.27;12.10;;;;;;;2.79;100.00;100087.16;5265049;28;20424;-79
2023/11/30 02:26:17;;;;;;;13.95;11.63;;;;;;;2.76;100.00;100073.59;5262788;28;20033;-79
2023/11/30 02:28:49;;;;;;;12.85;11.48;;;;;;;2.76;100.00;100083.94;5264060;28;20035;-79
2023/11/30 02:31:21;;;;;;;13.40;12.00;;;;;;;2.78;100.00;100090.69;5246529;28;20489;-79
2023/11/30 02:33:53;;;;;;;12.88;11.63;;;;;;;2.73;100.00;100073.78;5265370;28;20362;-79
2023/11/30 02:36:25;;;;;;;14.55;11.98;;;;;;;2.79;100.00;100091.50;5263602;28;20347;-79
2023/11/30 02:38:57;;;;;;;13.32;11.38;;;;;;;2.76;100.00;100078.78;5242091;28;20040;-79
2023/11/30 02:41:29;;;;;;;13.85;12.45;;;;;;;2.78;100.00;100082.09;5258830;28;20034;-79
2023/11/30 02:44:00;;;;;;;13.48;11.27;;;;;;;2.76;100.00;100082.19;5264259;28;20028;-79
2023/11/30 02:46:32;;;;;;;15.35;12.48;;;;;;;2.67;100.00;100062.09;5268256;28;20036;-78
2023/11/30 02:49:04;;;;;;;15.07;11.90;;;;;;;2.80;100.00;100085.41;5262446;28;20028;-78
2023/11/30 02:51:36;;;;;;;14.10;11.63;;;;;;;2.75;100.00;100077.94;5264787;28;20037;-78
2023/11/30 02:54:08;;;;;;;14.70;12.02;;;;;;;2.74;100.00;100073.72;5261899;28;20049;-78
2023/11/30 02:56:40;;;;;;;13.35;11.95;;;;;;;2.72;100.00;100072.97;5262028;28;20039;-78
2023/11/30 02:59:12;;;;;;;13.90;12.35;;;;;;;2.77;100.00;100073.53;5265599;28;20037;-78
2023/11/30 03:01:45;;;;;;;12.95;11.40;;;;;;;2.78;100.00;100070.00;5262159;28;20056;-78
2023/11/30 03:04:17;;;;;;;13.68;12.23;;;;;;;2.74;100.00;100057.38;5263870;28;20036;-78
2023/11/30 03:06:50;;;;;;;13.85;12.20;;;;;;;2.72;100.00;100070.38;5265028;28;20040;-78
2023/11/30 03:09:22;;;;;;;13.70;12.07;;;;;;;2.66;100.00;100057.88;5245760;28;20089;-78
2023/11/30 03:11:54;;;;;;;13.75;12.07;;;;;;;2.66;100.00;100074.22;5266874;28;20401;-78
2023/11/30 03:14:26;;;;;;;13.85;11.95;;;;;;;2.64;100.00;100062.28;5269698;28;20031;-78
2023/11/30 03:16:58;;;;;;;13.90;12.10;;;;;;;2.61;100.00;100071.09;5264169;28;20039;-78
2023/11/30 03:19:29;;;;;;;13.52;11.35;;;;;;;2.62;100.00;100065.00;5262806;28;20041;-78
2023/11/30 03:22:01;;;;;;;14.70;12.00;;;;;;;2.65;100.00;100069.97;5265846;28;20028;-78
2023/11/30 03:24:33;;;;;;;14.23;11.98;;;;;;;2.66;100.00;100071.63;5267286;28;20032;-78
2023/11/30 03:27:05;;;;;;;13.00;11.55;;;;;;;2.62;100.00;100075.34;5262780;28;20025;-78
2023/11/30 03:29:38;;;;;;;14.18;11.50;;;;;;;2.59;100.00;100064.34;5262977;28;20149;-78
2023/11/30 03:32:10;;;;;;;14.15;12.40;;;;;;;2.64;100.00;100076.06;5266960;28;20028;-78
2023/11/30 03:34:42;;;;;;;16.48;13.18;;;;;;;2.54;100.00;100062.06;5265309;28;20028;-78
2023/11/30 03:37:14;;;;;;;14.75;12.68;;;;;;;2.64;100.00;100076.06;5268336;28;20031;-78
2023/11/30 03:39:45;;;;;;;15.68;12.38;;;;;;;2.50;100.00;100055.44;5246934;28;20594;-78
2023/11/30 03:42:17;;;;;;;12.82;11.45;;;;;;;2.59;100.00;100067.78;5246238;28;20051;-78
2023/11/30 03:44:49;;;;;;;14.88;11.90;;;;;;;2.57;100.00;100068.78;5266780;28;20024;-78
2023/11/30 03:47:21;;;;;;;14.73;12.35;;;;;;;2.59;100.00;100070.34;5249828;28;20037;-78
2023/11/30 03:49:53;;;;;;;13.90;11.45;;;;;;;2.57;100.00;100063.63;5267640;28;20134;-77
2023/11/30 03:52:25;;;;;;;13.48;11.40;;;;;;;2.54;100.00;100049.16;5260140;28;20509;-78
2023/11/30 03:54:57;;;;;;;16.05;11.77;;;;;;;2.59;100.00;100057.44;5261981;28;20024;-78
2023/11/30 03:57:29;;;;;;;13.20;11.80;;;;;;;2.46;100.00;100042.78;5268916;28;20037;-78
2023/11/30 04:00:01;;;;;;;14.55;11.77;;;;;;;2.46;100.00;100035.84;5260991;28;20033;-78
2023/11/30 04:02:32;;;;;;;15.45;11.60;;;;;;;2.49;100.00;100046.00;5262913;28;20048;-78
2023/11/30 04:05:05;;;;;;;13.95;11.63;;;;;;;2.40;100.00;100039.69;5268069;28;20040;-78
2023/11/30 04:07:38;;;;;;;15.55;11.90;;;;;;;2.47;100.00;100054.81;5260661;28;20028;-78
2023/11/30 04:10:11;;;;;;;;;;;;;;;3.13;100.00;100062.50;5266043;28;20500;-78
2023/11/30 04:12:43;;;;;;;13.77;11.18;;;;;;;2.55;100.00;100061.13;5265760;28;19919;-78
2023/11/30 04:15:15;;;;;;;14.15;11.63;;;;;;;2.48;100.00;100052.09;5265760;28;20491;-78
2023/11/30 04:17:47;;;;;;;12.32;11.02;;;;;;;2.50;100.00;100046.81;5265010;28;20434;-78
2023/11/30 04:20:19;;;;;;;14.65;12.13;;;;;;;2.48;100.00;100051.28;5262166;28;20074;-78
2023/11/30 04:22:51;;;;;;;14.60;12.05;;;;;;;2.47;100.00;100047.88;5262210;28;20122;-78
2023/11/30 04:25:22;;;;;;;13.60;11.88;;;;;;;2.43;100.00;100034.31;5246238;28;20405;-78
2023/11/30 04:27:54;;;;;;;13.88;11.55;;;;;;;2.46;100.00;100042.78;5263667;28;20032;-78
2023/11/30 04:30:26;;;;;;;14.80;11.90;;;;;;;2.52;100.00;100039.81;5260964;28;20033;-79
2023/11/30 04:32:58;;;;;;;14.10;11.98;;;;;;;2.51;100.00;100045.94;5262341;28;20035;-79
2023/11/30 04:35:30;;;;;;;13.35;11.95;;;;;;;2.50;100.00;100045.09;5262590;28;20039;-79
2023/11/30 04:38:02;;;;;;;13.55;11.27;;;;;;;2.45;100.00;100044.53;5264527;28;20032;-79
2023/11/30 04:40:34;;;;;;;13.60;12.00;;;;;;;2.47;100.00;100050.47;5264395;28;20032;-79
2023/11/30 04:43:06;;;;;;;13.25;11.85;;;;;;;2.51;100.00;100064.03;5263184;28;20032;-79
2023/11/30 04:45:38;;;;;;;14.07;12.25;;;;;;;2.40;100.00;100054.34;5261221;28;20493;-79
2023/11/30 04:48:10;;;;;;;13.50;11.77;;;;;;;2.53;100.00;100062.16;5261195;28;20033;-79
2023/11/30 04:50:42;;;;;;;14.35;11.77;;;;;;;2.55;100.00;100068.91;5260494;28;20068;-78
2023/11/30 04:53:13;;;;;;;13.63;12.13;;;;;;;2.56;100.00;100057.63;5263900;28;20454;-78
2023/11/30 04:55:45;;;;;;;13.27;11.93;;;;;;;2.50;100.00;100039.94;5266547;28;20032;-78
2023/11/30 04:58:17;;;;;;;14.05;12.52;;;;;;;2.53;100.00;100046.63;5260350;28;20033;-78
2023/11/30 05:00:49;;;;;;;13.98;11.90;;;;;;;2.56;100.00;100057.63;5261654;28;20037;-78
2023/11/30 05:03:21;;;;;;;13.60;11.93;;;;;;;2.57;100.00;100043.75;5260946;28;20788;-78
2023/11/30 05:05:53;;;;;;;12.65;10.88;;;;;;;2.61;100.00;100046.97;5261533;28;20036;-78
2023/11/30 05:08:25;;;;;;;12.75;11.45;;;;;;;2.63;100.00;100058.06;5257192;28;20047;-78
2023/11/30 05:10:58;;;;;;;14.88;11.82;;;;;;;2.61;100.00;100047.81;5261575;28;20024;-78
2023/11/30 05:13:29;;;;;;;13.80;12.15;;;;;;;2.67;100.00;100044.81;5257827;28;20032;-78
2023/11/30 05:16:01;;;;;;;12.98;11.60;;;;;;;2.65;100.00;100053.59;5265706;28;20024;-78
2023/11/30 05:18:33;;;;;;;17.10;11.55;;;;;;;2.67;100.00;100046.59;5260704;28;20040;-78
2023/11/30 05:21:06;;;;;;;13.68;11.73;;;;;;;2.69;100.00;100034.41;5260764;28;20044;-78
2023/11/30 05:23:37;;;;;;;12.80;11.50;;;;;;;2.72;100.00;100038.53;5260385;28;20059;-78
2023/11/30 05:26:09;;;;;;;14.43;11.57;;;;;;;2.65;100.00;100036.34;5259611;28;20033;-78
2023/11/30 05:28:41;;;;;;;16.15;12.32;;;;;;;2.58;100.00;100031.69;5266646;28;20547;-78
2023/11/30 05:31:13;;;;;;;15.15;12.02;;;;;;;2.61;100.00;100034.91;5263524;28;20028;-78
2023/11/30 05:33:45;;;;;;;13.48;11.80;;;;;;;2.59;100.00;100026.41;5264227;28;20040;-78
2023/11/30 05:36:17;;;;;;;16.45;12.52;;;;;;;2.58;100.00;100037.69;5262867;28;20044;-78
2023/11/30 05:38:50;;;;;;;14.10;11.75;;;;;;;2.54;100.00;100015.53;5268716;28;20028;-78
2023/11/30 05:41:22;;;;;;;14.30;12.65;;;;;;;2.58;100.00;100027.34;5267337;28;20032;-78
2023/11/30 05:43:54;;;;;;;17.23;12.85;;;;;;;2.52;100.00;100022.53;5264244;28;20040;-78
2023/11/30 05:46:26;;;;;;;14.73;12.02;;;;;;;2.54;100.00;100030.19;5243966;28;20773;-78
2023/11/30 05:48:58;;;;;;;14.18;12.00;;;;;;;2.48;100.00;100020.25;5262384;28;20409;-78
2023/11/30 05:51:29;;;;;;;15.18;12.10;;;;;;;2.52;100.00;100037.22;5268876;28;20035;-78
2023/11/30 05:54:01;;;;;;;14.45;11.90;;;;;;;2.41;100.00;100025.00;5269268;28;20032;-78
2023/11/30 05:56:33;;;;;;;13.27;11.95;;;;;;;2.44;100.00;100014.47;5262669;28;20095;-78
2023/11/30 05:59:05;;;;;;;12.38;11.05;;;;;;;2.49;100.00;100025.31;5263352;28;20029;-78
2023/11/30 06:01:37;;;;;;;13.35;11.95;;;;;;;2.49;100.00;100032.25;5266385;28;20051;-79
2023/11/30 06:04:09;;;;;;;13.57;12.18;;;;;;;2.47;100.00;100032.38;5266935;28;20036;-78
2023/11/30 06:06:41;;;;;;;16.33;12.80;;;;;;;2.49;100.00;100035.66;5269454;28;20412;-80
2023/11/30 06:09:15;;;;;;;14.05;12.55;;;;;;;2.50;100.00;100029.59;5263063;28;20032;-78
2023/11/30 06:11:46;;;;;;;;;;;;;;;3.12;100.00;100024.63;5264597;28;20036;-79
2023/11/30 06:14:19;;;;;;;16.20;11.13;;;;;;;2.54;100.00;100018.13;5245566;28;20416;-79
2023/11/30 06:16:50;;;;;;;16.15;11.98;;;;;;;2.49;100.00;100022.75;5266476;28;20036;-79
2023/11/30 06:19:24;;;;;;;14.18;12.13;;;;;;;2.40;100.00;100025.94;5263209;28;20032;-78
2023/11/30 06:21:56;;;;;;;15.95;12.27;;;;;;;2.50;100.00;100028.72;5263750;28;20032;-79
2023/11/30 06:24:29;;;;;;;13.38;11.77;;;;;;;2.47;100.00;100037.53;5262863;28;20481;-79
2023/11/30 06:27:02;;;;;;;15.65;12.20;;;;;;;2.50;100.00;100044.25;5261939;28;20043;-79
2023/11/30 06:29:33;;;;;;;14.97;12.13;;;;;;;2.60;100.00;100047.91;5260490;28;20039;-79
2023/11/30 06:32:05;;;;;;;15.07;13.48;;;;;;;2.58;100.00;100035.09;5249848;28;20037;-79
2023/11/30 06:34:37;;;;;;;17.45;13.20;;;;;;;2.63;100.00;100042.53;5262726;28;20040;-79
2023/11/30 06:37:09;;;;;;;14.25;12.75;;;;;;;2.65;100.00;100043.25;5263105;28;20033;-79
2023/11/30 06:39:41;;;;;;;15.13;12.95;;;;;;;2.54;100.00;100032.78;5263281;28;20515;-80
2023/11/30 06:42:13;;;;;;;14.05;12.55;;;;;;;2.66;100.00;100050.09;5262676;28;20056;-79
2023/11/30 06:44:47;;;;;;;13.90;12.30;;;;;;;2.66;100.00;100056.09;5264135;28;20039;-79
2023/11/30 06:47:19;;;;;;;15.50;12.40;;;;;;;2.63;100.00;100056.28;5249881;28;20132;-79
2023/11/30 06:49:51;;;;;;;14.48;11.73;;;;;;;2.60;100.00;100048.72;5265043;28;20029;-79
2023/11/30 06:52:23;;;;;;;13.65;12.05;;;;;;;2.64;100.00;100057.94;5249491;28;20041;-79
2023/11/30 06:54:55;;;;;;;13.88;11.57;;;;;;;2.59;100.00;100060.00;5263368;28;20029;-79
2023/11/30 06:57:26;;;;;;;15.27;12.85;;;;;;;2.54;100.00;100053.47;5261871;28;20037;-79
2023/11/30 06:59:58;;;;;;;14.60;11.60;;;;;;;2.57;100.00;100058.44;5266940;28;20044;-79
2023/11/30 07:02:31;;;;;;;15.25;12.25;;;;;;;2.56;100.00;100060.19;5267743;28;20044;-79
2023/11/30 07:05:06;;;;;;;13.83;12.03;;;;;;;2.60;100.00;100060.84;5262680;28;20037;-79
2023/11/30 07:07:38;;;;;;;13.40;11.98;;;;;;;2.57;100.00;100056.69;5263763;28;20047;-79
2023/11/30 07:10:12;;;;;;;15.07;12.40;;;;;;;2.53;100.00;100051.81;5261343;28;20029;-79
2023/11/30 07:12:45;;;;;;;13.15;11.75;;;;;;;2.52;100.00;100053.56;5265005;28;20032;-78
2023/11/30 07:15:17;;;;;;;14.23;12.45;;;;;;;2.51;100.00;100049.34;5263941;28;20025;-79
2023/11/30 07:17:49;;;;;;;15.13;12.38;;;;;;;2.50;100.00;100060.63;5257017;28;20036;-79
2023/11/30 07:20:22;;;;;;;14.45;12.90;;;;;;;2.52;100.00;100063.91;5263472;28;20070;-78
2023/11/30 07:22:54;;;;;;;16.88;12.70;;;;;;;2.59;100.00;100066.94;5261069;28;20047;-79
2023/11/30 07:25:26;;;;;;;17.02;13.48;;;;;;;2.44;100.00;100064.41;5260712;28;20044;-78
2023/11/30 07:27:59;;;;;;;14.82;12.80;;;;;;;2.47;100.00;100055.63;5237847;28;20045;-79
2023/11/30 07:30:31;;;;;;;13.43;11.43;;;;;;;2.53;100.00;100060.38;5256843;28;20033;-79
2023/11/30 07:33:04;;;;;;;14.63;12.40;;;;;;;2.57;100.00;100066.19;5249799;28;20028;-78
2023/11/30 07:35:37;;;;;;;14.52;11.35;;;;;;;2.60;100.00;100058.25;5259233;28;20033;-78
2023/11/30 07:38:09;;;;;;;13.00;11.63;;;;;;;2.50;100.00;100058.03;5263084;28;20017;-78
2023/11/30 07:40:41;;;;;;;13.40;11.65;;;;;;;2.46;100.00;100066.88;5247332;28;20595;-78
2023/11/30 07:43:13;;;;;;;15.95;12.05;;;;;;;2.48;100.00;100071.97;5257514;28;20032;-79
2023/11/30 07:45:45;;;;;;;15.05;11.88;;;;;;;2.50;100.00;100075.28;5240670;28;20491;-78
2023/11/30 07:48:20;;;;;;;14.80;12.10;;;;;;;2.56;100.00;100077.47;5255587;28;20052;-79
2023/11/30 07:50:54;;;;;;;13.82;12.13;;;;;;;2.47;100.00;100075.50;5254428;28;20048;-79
2023/11/30 07:53:26;;;;;;;17.52;13.00;;;;;;;2.54;100.00;100087.06;5263243;28;20024;-79
2023/11/30 07:55:58;;;;;;;14.70;12.93;;;;;;;2.56;100.00;100080.88;5261397;28;20036;-79
2023/11/30 07:58:31;;;;;;;16.30;13.32;;;;;;;2.55;100.00;100081.81;5235294;28;20490;-79
2023/11/30 08:01:05;;;;;;;24.77;15.13;;;;;;;2.65;100.00;100082.03;5257061;28;20029;-79
2023/11/30 08:03:37;;;;;;;19.52;15.18;;;;;;;2.55;100.00;100084.41;5257966;28;20045;-79
2023/11/30 08:06:09;;;;;;;20.55;16.48;;;;;;;2.54;100.00;100068.97;5258397;28;20098;-78
2023/11/30 08:08:41;;;;;;;21.40;17.98;;;;;;;2.57;100.00;100082.53;5259573;28;20040;-79
2023/11/30 08:11:14;;;;;;;21.45;17.98;;;;;;;2.60;100.00;100082.34;5258050;28;20039;-78
2023/11/30 08:13:46;;;;;;;25.80;21.35;;;;;;;2.60;100.00;100066.84;5254122;28;20099;-79
2023/11/30 08:16:18;;;;;;;25.05;19.90;;;;;;;2.60;100.00;100066.84;5267622;28;20396;-79
2023/11/30 08:18:50;;;;;;;23.40;19.88;;;;;;;2.60;100.00;100066.00;5266738;28;20028;-79
2023/11/30 08:21:22;;;;;;;21.73;18.25;;;;;;;2.71;100.00;100078.25;5258999;28;20099;-79
2023/11/30 08:23:54;;;;;;;21.17;16.95;;;;;;;2.73;100.00;100071.22;5261169;28;20108;-79
2023/11/30 08:26:26;;;;;;;17.67;15.80;;;;;;;2.60;100.00;100056.50;5267693;28;20207;-79
2023/11/30 08:28:58;;;;;;;19.08;16.15;;;;;;;2.61;100.00;100067.66;5265858;28;20024;-80
2023/11/30 08:31:30;;;;;;;26.45;20.80;;;;;;;2.67;100.00;100070.69;5262525;28;20091;-79
2023/11/30 08:34:02;;;;;;;26.92;21.35;;;;;;;2.66;100.00;100066.44;5261136;28;20111;-78
2023/11/30 08:36:34;;;;;;;27.23;20.85;;;;;;;2.72;100.00;100074.72;5259703;28;20039;-79
2023/11/30 08:39:06;;;;;;;24.23;20.42;;;;;;;2.68;100.00;100072.34;5257392;28;20033;-79
2023/11/30 08:41:38;;;;;;;23.98;19.95;;;;;;;2.70;100.00;100072.25;5256809;28;20139;-79
2023/11/30 08:44:10;;;;;;;25.02;19.02;;;;;;;2.69;100.00;100070.59;5258726;28;20150;-78
2023/11/30 08:46:42;;;;;;;26.90;20.27;;;;;;;2.74;100.00;100072.88;5261949;28;20076;-79
2023/11/30 08:49:15;;;;;;;23.90;20.53;;;;;;;2.81;100.00;100079.31;5259513;28;20059;-78
2023/11/30 08:51:47;;;;;;;23.48;19.23;;;;;;;2.87;100.00;100073.75;5262663;28;20033;-78
2023/11/30 08:54:21;;;;;;;23.88;19.88;;;;;;;2.91;100.00;100073.44;5262647;28;20079;-78
2023/11/30 08:56:52;;;;;;;;;;;;;;;3.55;100.00;100073.50;5259727;28;20033;-78
2023/11/30 08:59:25;;;;;;;19.80;16.60;;;;;;;3.07;100.00;100069.84;5263097;28;20328;-78
2023/11/30 09:01:56;;;;;;;20.15;17.50;;;;;;;3.14;100.00;100076.28;5262926;28;20055;-78
2023/11/30 09:04:28;;;;;;;20.35;17.30;;;;;;;3.09;100.00;100070.56;5262762;28;20036;-78
2023/11/30 09:07:00;;;;;;;21.13;17.70;;;;;;;3.15;100.00;100062.41;5259797;28;20032;-79
2023/11/30 09:09:33;;;;;;;21.17;18.20;;;;;;;3.12;100.00;100057.44;5260309;28;20036;-78
2023/11/30 09:12:05;;;;;;;19.83;17.40;;;;;;;3.16;100.00;100071.84;5258253;28;20406;-78
2023/11/30 09:14:37;;;;;;;22.25;18.73;;;;;;;3.17;100.00;100066.53;5259967;28;21399;-78
2023/11/30 09:17:08;;;;;;;20.98;17.67;;;;;;;3.17;100.00;100076.06;5253662;28;20037;-78
2023/11/30 09:19:40;;;;;;;19.58;17.30;;;;;;;3.21;100.00;100077.53;5262342;28;20047;-78
2023/11/30 09:22:12;;;;;;;20.77;16.95;;;;;;;3.23;100.00;100072.25;5260281;28;20259;-78
2023/11/30 09:24:44;;;;;;;20.15;17.33;;;;;;;3.26;100.00;100070.31;5257447;28;20045;-78
2023/11/30 09:27:16;;;;;;;18.98;16.15;;;;;;;3.28;100.00;100063.25;5260214;28;20036;-78
2023/11/30 09:29:48;;;;;;;21.15;18.20;;;;;;;3.31;100.00;100067.41;5259257;28;20046;-78
2023/11/30 09:32:22;;;;;;;19.55;17.45;;;;;;;3.33;100.00;100063.78;5265449;28;20041;-78
2023/11/30 09:34:54;;;;;;;21.90;17.85;;;;;;;3.41;100.00;100073.63;5260069;28;20032;-78
2023/11/30 09:37:26;;;;;;;22.67;18.00;;;;;;;3.39;100.00;100068.53;5260459;28;20397;-79
2023/11/30 09:39:58;;;;;;;23.85;18.92;;;;;;;3.44;100.00;100068.22;5261434;28;20036;-78
2023/11/30 09:42:31;;;;;;;21.92;17.33;;;;;;;3.48;100.00;100071.44;5263075;28;20036;-78
2023/11/30 09:45:04;;;;;;;20.83;18.00;;;;;;;3.49;100.00;100053.22;5258655;28;20032;-78
2023/11/30 09:47:36;;;;;;;20.15;17.83;;;;;;;3.51;100.00;100059.09;5258309;28;20627;-79
2023/11/30 09:50:08;;;;;;;20.77;16.95;;;;;;;3.53;100.00;100064.19;5259518;28;20040;-79
2023/11/30 09:52:41;;;;;;;22.17;19.75;;;;;;;3.53;100.00;100075.38;5260661;28;20036;-79
2023/11/30 09:55:13;;;;;;;22.60;18.88;;;;;;;3.58;100.00;100070.69;5258584;28;20036;-78
2023/11/30 09:57:45;;;;;;;22.88;20.10;;;;;;;3.57;100.00;100076.81;5259783;28;20465;-78
2023/11/30 10:00:17;;;;;;;22.85;19.88;;;;;;;3.54;100.00;100076.19;5243955;28;20049;-79
2023/11/30 10:02:52;;;;;;;23.00;20.58;;;;;;;3.58;100.00;100078.47;5259094;28;20421;-78
2023/11/30 10:05:26;;;;;;;25.45;20.42;;;;;;;3.64;100.00;100088.44;5261447;28;20029;-78
2023/11/30 10:07:58;;;;;;;27.10;22.35;;;;;;;3.67;100.00;100079.59;5260853;28;20044;-78
2023/11/30 10:10:30;;;;;;;25.70;22.33;;;;;;;3.65;100.00;100087.50;5259985;28;20032;-79
2023/11/30 10:13:02;;;;;;;28.15;23.50;;;;;;;3.69;100.00;100087.28;5257465;28;20036;-79
2023/11/30 10:15:34;;;;;;;28.95;23.42;;;;;;;3.71;100.00;100080.22;5258362;28;20032;-79
2023/11/30 10:18:06;;;;;;;28.13;23.25;;;;;;;3.72;100.00;100082.72;5266342;28;20042;-78
2023/11/30 10:20:38;;;;;;;27.40;23.25;;;;;;;3.73;100.00;100078.38;5260687;28;20037;-78
2023/11/30 10:23:12;;;;;;;31.10;25.08;;;;;;;3.79;100.00;100078.78;5246673;28;20040;-78
2023/11/30 10:25:46;;;;;;;;;;;;;;;4.48;100.00;100083.47;5245216;28;20052;-79
2023/11/30 10:28:20;;;;;;;26.92;22.15;;;;;;;4.01;100.00;100075.50;5262452;28;19916;-79
2023/11/30 10:30:55;;;;;;;31.90;24.80;;;;;;;4.00;100.00;100071.28;5262970;28;20036;-79
2023/11/30 10:33:28;;;;;;;34.33;25.27;;;;;;;4.04;100.00;100075.31;5263364;28;20028;-79
2023/11/30 10:36:05;;;;;;;33.28;26.33;;;;;;;4.01;100.00;100070.31;5264235;28;20035;-79
2023/11/30 10:38:41;;;;;;;31.65;26.00;;;;;;;4.07;100.00;100067.31;5261385;28;20051;-79
2023/11/30 10:41:22;;;;;;;32.05;26.45;;;;;;;4.21;100.00;100076.72;5261351;28;20048;-79
2023/11/30 10:43:55;;;;;;;38.05;28.50;;;;;;;4.14;100.00;100078.09;5256897;28;20044;-79
2023/11/30 10:46:28;;;;;;;34.47;27.45;;;;;;;4.01;100.00;100061.72;5264922;28;20040;-79
2023/11/30 10:49:03;;;;;;;31.67;26.55;;;;;;;4.13;100.00;100064.31;5265275;28;20052;-79
2023/11/30 10:51:37;;;;;;;33.20;27.05;;;;;;;4.24;100.00;100073.06;5262727;28;20043;-79
2023/11/30 10:54:24;;;;;;;40.15;29.40;;;;;;;4.41;100.00;100070.13;5242910;28;20036;-79
2023/11/30 10:56:58;;;;;;;37.38;30.10;;;;;;;4.27;100.00;100070.25;5266468;28;20064;-79
2023/11/30 10:59:31;;;;;;;35.08;29.27;;;;;;;4.31;100.00;100066.50;5260919;28;20028;-79
2023/11/30 11:02:05;;;;;;;;;;;;;;;4.98;100.00;100066.81;5260194;28;20406;-79
2023/11/30 11:04:40;;;;;;;35.05;29.08;;;;;;;4.57;100.00;100065.47;5265423;28;19920;-79
2023/11/30 11:07:13;;;;;;;35.42;27.88;;;;;;;4.46;100.00;100064.59;5261009;28;20044;-79
2023/11/30 11:09:51;;;;;;;35.33;28.83;;;;;;;4.58;100.00;100054.19;5260581;28;20405;-79
2023/11/30 11:12:24;;;;;;;31.50;27.08;;;;;;;4.51;100.00;100067.69;5261499;28;20360;-79
2023/11/30 11:15:09;;;;;;;31.02;27.23;;;;;;;4.68;100.00;100063.88;5255259;28;20040;-79
2023/11/30 11:17:48;;;;;;;33.65;26.58;;;;;;;4.58;100.00;100048.13;5260095;28;20036;-79
2023/11/30 11:20:21;;;;;;;34.35;25.75;;;;;;;4.61;100.00;100061.72;5266492;28;20028;-79
2023/11/30 11:23:13;;;;;;;32.95;28.45;;;;;;;4.91;100.00;100069.97;5263047;28;20044;-79
2023/11/30 11:25:46;;;;;;;32.42;26.40;;;;;;;4.66;100.00;100063.16;5263210;28;20041;-79
2023/11/30 11:28:19;;;;;;;32.35;26.98;;;;;;;4.72;100.00;100062.72;5259192;28;20025;-79
2023/11/30 11:30:51;;;;;;;30.80;26.00;;;;;;;4.71;100.00;100050.69;5264302;28;20045;-79
2023/11/30 11:33:25;;;;;;;33.78;27.00;;;;;;;4.72;100.00;100058.34;5261394;28;20466;-79
2023/11/30 11:35:57;;;;;;;30.15;26.20;;;;;;;4.84;100.00;100062.63;5262007;28;20119;-79
2023/11/30 11:38:29;;;;;;;31.48;26.08;;;;;;;4.92;100.00;100059.47;5263456;28;20095;-79
2023/11/30 11:41:01;;;;;;;31.15;26.75;;;;;;;4.92;100.00;100049.09;5244181;28;20036;-79
2023/11/30 11:43:33;;;;;;;31.42;26.88;;;;;;;5.00;100.00;100064.94;5260547;28;20033;-79
2023/11/30 11:46:05;;;;;;;30.20;26.90;;;;;;;5.01;100.00;100053.63;5256118;28;20465;-79
2023/11/30 11:48:37;;;;;;;29.17;25.80;;;;;;;5.00;100.00;100054.56;5241522;28;21209;-79